Airfield :
LOGIN :

Register | Disclaimer

   EN    FR    IT 

 










Legend :    VFR   Marginal VFR   IFR   Intensive IFR   Very Intensive IFR
Visi :
Ceiling :
>= 8 km
>= 3000ft
5 to 8 km
1000 to 3000 ft
1500m to 5 km
500 to 1000 ft
800 to 1500m
200 to 500 ft
< 800m
< 200 ft
Symbols :   Thunderstorms  Fog  Heavy snow  Heavy precipitations  Wind > 20 kt
SIGMETs :     Misc.  Thunderstorms  Icing  Turbulence  Mountain Waves  Volcanic Ashes







- Airport Elevation : 538 ft
- IATA code : TNF
- Download approach charts


LFPN - Toussus Le Noble

CURRENT METAR :
  • 181630Z AUTO 13009KT CAVOK 27/14 Q1010 NOSIG

EXPIRED METARs :
  • 181600Z AUTO 14009KT CAVOK 27/15 Q1010 NOSIG
  • 181530Z AUTO 14010KT CAVOK 28/14 Q1010 NOSIG
  • 181500Z AUTO 13010KT 090V150 CAVOK 28/14 Q1010 NOSIG
  • 181430Z AUTO 12011KT CAVOK 28/14 Q1011 NOSIG
  • 181400Z AUTO 13010KT CAVOK 28/15 Q1011 NOSIG

TAF TAF LFPN
Valid from the 18 at 15:00 until the 19 at 00:00 UTC


181400Z 1815/1824 12008KT CAVOK
PROB40
TEMPO 1819/1824 VRB10G25KT 4000 -SHRA BKN050CB
PROB30
TEMPO 1822/1824 VRB15G30KT 1500 TSRAGR BKN050CB
ATIS : +33 1 39 56 54 70
No reported NOTAMs for that airfield.



MET'MAP, your aeronautical weather chart ! - Copyright ORBIFLY December 2007 - Disclaimer

ORBIFLY MET'MAP TEAM :

Programming & Development : Alexandra Zaïnal
Concept & Development : Baudouin d'Aumeries
Co-Development & Prog : Marc-Olivier Méhu
Technical & hardware support : Manuel Goepfert

Contact : metmap@orbifly.com




SOURCES & CREDITS :

   NOAA